Time;durP1;ratioP1;P1;durP2;ratioP2;P2;SDS_P1;SDS_P2;PMS_P1;PMS_P2;Temp;Humidity;BMP_temperature;BMP_pressure;BME280_temperature;BME280_humidity;BME280_pressure;Samples;Min_cycle;Max_cycle;Signal;HPM_P1;HPM_P2
2021/03/04 00:00:14;;;;;;;5.10;2.20;;;11.50;90.00;;;;;;5044834;28;20519;-52
2021/03/04 00:02:41;;;;;;;6.00;2.10;;;11.60;89.70;;;;;;5044821;28;20087;-53
2021/03/04 00:05:09;;;;;;;3.85;2.00;;;11.50;90.10;;;;;;5044717;28;20032;-51
2021/03/04 00:07:36;;;;;;;4.95;2.05;;;11.50;90.30;;;;;;5044320;28;20041;-51
2021/03/04 00:10:06;;;;;;;3.17;2.03;;;11.50;90.50;;;;;;5045425;28;20430;-54
2021/03/04 00:12:31;;;;;;;5.93;2.10;;;11.50;90.30;;;;;;5043461;28;20029;-51
2021/03/04 00:14:59;;;;;;;5.88;2.63;;;11.60;90.10;;;;;;5044494;28;20087;-53
2021/03/04 00:17:24;;;;;;;5.82;2.30;;;11.50;90.20;;;;;;5044366;28;20029;-53
2021/03/04 00:19:50;;;;;;;5.18;2.28;;;11.60;90.40;;;;;;5044568;28;20031;-54
2021/03/04 00:22:16;;;;;;;8.02;3.10;;;11.60;90.30;;;;;;5044350;28;20513;-54
2021/03/04 00:24:42;;;;;;;6.20;2.25;;;11.60;90.50;;;;;;5044385;28;20025;-53
2021/03/04 00:27:08;;;;;;;4.07;2.20;;;11.50;90.40;;;;;;5044598;28;20067;-54
2021/03/04 00:29:34;;;;;;;4.18;2.10;;;11.40;90.50;;;;;;5044221;28;20439;-54
2021/03/04 00:32:00;;;;;;;3.80;1.70;;;11.30;90.80;;;;;;5045334;28;20036;-53
2021/03/04 00:34:27;;;;;;;4.95;2.20;;;11.20;91.20;;;;;;5043814;28;20028;-54
2021/03/04 00:36:53;;;;;;;3.40;2.00;;;11.10;91.50;;;;;;5044527;28;20043;-54
2021/03/04 00:39:19;;;;;;;3.70;2.05;;;11.00;92.00;;;;;;5043872;28;20021;-54
2021/03/04 00:41:44;;;;;;;4.72;1.95;;;11.00;92.10;;;;;;5044164;28;20104;-53
2021/03/04 00:44:10;;;;;;;6.43;2.53;;;11.00;92.20;;;;;;5044702;28;20117;-51
2021/03/04 00:46:36;;;;;;;4.45;1.77;;;10.90;92.50;;;;;;5043824;28;20043;-53
2021/03/04 00:49:03;;;;;;;5.10;2.47;;;10.90;92.70;;;;;;5044542;28;20076;-54
2021/03/04 00:51:29;;;;;;;3.58;1.83;;;10.90;92.90;;;;;;5044604;28;20052;-53
2021/03/04 00:53:55;;;;;;;8.52;3.15;;;10.90;92.90;;;;;;5043736;28;20140;-53
2021/03/04 00:56:21;;;;;;;5.28;2.40;;;10.90;93.10;;;;;;5043730;28;20459;-54
2021/03/04 00:58:47;;;;;;;4.05;1.75;;;10.80;93.20;;;;;;5044285;28;20068;-51
2021/03/04 01:01:15;;;;;;;3.85;2.00;;;10.80;93.40;;;;;;5043986;28;20029;-54
2021/03/04 01:03:41;;;;;;;3.28;1.80;;;10.90;93.50;;;;;;5043973;28;20059;-54
2021/03/04 01:06:08;;;;;;;4.38;2.78;;;10.80;93.50;;;;;;5046930;28;20511;-54
2021/03/04 01:08:34;;;;;;;8.75;2.75;;;10.90;93.50;;;;;;5047988;28;20017;-53
2021/03/04 01:11:01;;;;;;;3.05;1.92;;;10.90;93.60;;;;;;5048615;28;20064;-53
2021/03/04 01:13:27;;;;;;;4.70;2.50;;;10.90;93.80;;;;;;5047710;28;20021;-53
2021/03/04 01:15:53;;;;;;;9.73;4.57;;;10.90;93.70;;;;;;5047824;28;20060;-53
2021/03/04 01:18:20;;;;;;;8.15;4.07;;;10.70;94.00;;;;;;5046146;28;20503;-53
2021/03/04 01:20:47;;;;;;;11.15;4.35;;;10.70;94.30;;;;;;5047914;28;20581;-54
2021/03/04 01:23:12;;;;;;;6.78;3.10;;;10.60;94.50;;;;;;5048007;28;20279;-54
2021/03/04 01:25:38;;;;;;;5.10;2.75;;;10.70;94.40;;;;;;5047378;28;20025;-54
2021/03/04 01:28:04;;;;;;;5.25;2.10;;;10.70;94.50;;;;;;5047857;28;20013;-54
2021/03/04 01:30:32;;;;;;;3.22;1.80;;;10.70;94.60;;;;;;5048090;28;20036;-54
2021/03/04 01:32:59;;;;;;;4.80;2.50;;;10.70;94.70;;;;;;5048182;28;20035;-53
2021/03/04 01:35:25;;;;;;;5.70;2.83;;;10.60;94.90;;;;;;5047215;28;20041;-54
2021/03/04 01:37:51;;;;;;;5.32;2.50;;;10.60;95.00;;;;;;5047452;28;20025;-54
2021/03/04 01:40:22;;;;;;;4.97;1.92;;;10.60;95.10;;;;;;5047302;28;20079;-53
2021/03/04 01:42:51;;;;;;;6.93;2.25;;;10.60;95.30;;;;;;5047562;28;20460;-52
2021/03/04 01:45:18;;;;;;;2.85;1.95;;;10.60;95.30;;;;;;5046211;28;20029;-53
2021/03/04 01:47:48;;;;;;;2.38;1.60;;;10.60;95.40;;;;;;5047635;28;20025;-54
2021/03/04 01:50:14;;;;;;;5.40;2.05;;;10.60;95.50;;;;;;5047723;28;20025;-54
2021/03/04 01:52:41;;;;;;;3.20;1.80;;;10.60;95.70;;;;;;5047065;28;20107;-53
2021/03/04 01:55:07;;;;;;;4.53;2.22;;;10.60;95.90;;;;;;5047138;28;20037;-53
2021/03/04 01:57:37;;;;;;;6.93;2.20;;;10.50;96.00;;;;;;5045659;28;20021;-54
2021/03/04 02:00:07;;;;;;;5.38;2.25;;;10.50;96.10;;;;;;5047432;28;20552;-52
2021/03/04 02:02:33;;;;;;;3.75;1.88;;;10.50;96.30;;;;;;5045525;28;20585;-53
2021/03/04 02:05:00;;;;;;;3.78;1.80;;;10.50;96.30;;;;;;5047542;28;20104;-54
2021/03/04 02:07:28;;;;;;;5.03;2.08;;;10.40;96.50;;;;;;5046507;28;20082;-53
2021/03/04 02:10:30;;;;;;;5.18;2.13;;;10.30;96.90;;;;;;5047108;28;20568;-53
2021/03/04 02:13:13;;;;;;;4.60;2.35;;;10.30;96.90;;;;;;5051980;28;20045;-53
2021/03/04 02:16:12;;;;;;;3.03;1.88;;;10.40;96.80;;;;;;5046092;28;20048;-52
2021/03/04 02:18:43;;;;;;;4.22;2.42;;;10.40;96.90;;;;;;5046276;28;20029;-54
2021/03/04 02:21:40;;;;;;;5.35;2.58;;;10.40;97.20;;;;;;5047176;28;20489;-53
2021/03/04 02:24:28;;;;;;;4.82;2.28;;;10.40;97.10;;;;;;5047117;28;20028;-51
2021/03/04 02:27:06;;;;;;;4.97;2.33;;;10.50;97.10;;;;;;5078717;28;20052;-50
2021/03/04 02:29:41;;;;;;;4.03;2.00;;;10.50;97.10;;;;;;5046576;28;20502;-53
2021/03/04 02:32:09;;;;;;;3.47;2.33;;;10.60;97.10;;;;;;5046667;28;20029;-54
2021/03/04 02:34:42;;;;;;;3.95;2.00;;;10.50;97.20;;;;;;5045376;28;20052;-54
2021/03/04 02:37:09;;;;;;;4.53;2.00;;;10.40;97.20;;;;;;5046804;28;20028;-55
2021/03/04 02:39:36;;;;;;;4.35;2.28;;;10.40;97.40;;;;;;5046125;28;20128;-53
2021/03/04 02:42:02;;;;;;;5.07;2.78;;;10.50;97.40;;;;;;5046404;28;20044;-53
2021/03/04 02:44:29;;;;;;;4.03;2.50;;;10.50;97.30;;;;;;5046207;28;20044;-53
2021/03/04 02:46:55;;;;;;;6.97;2.75;;;10.60;97.20;;;;;;5046361;28;20029;-51
2021/03/04 02:49:22;;;;;;;8.77;2.78;;;10.50;97.20;;;;;;5046691;28;20079;-54
2021/03/04 02:51:49;;;;;;;6.93;3.47;;;10.40;97.50;;;;;;5046262;28;20024;-54
2021/03/04 02:54:16;;;;;;;6.18;2.67;;;10.40;97.60;;;;;;5045259;28;20399;-54
2021/03/04 02:56:43;;;;;;;4.38;2.20;;;10.50;97.30;;;;;;5045906;28;20403;-54
2021/03/04 02:59:10;;;;;;;9.88;2.85;;;10.60;97.30;;;;;;5045828;28;20405;-53
2021/03/04 03:01:37;;;;;;;3.72;2.42;;;10.50;97.30;;;;;;5046064;28;20037;-53
2021/03/04 03:04:04;;;;;;;4.75;2.55;;;10.50;97.60;;;;;;5045888;28;20029;-52
2021/03/04 03:06:32;;;;;;;4.97;2.53;;;10.50;97.60;;;;;;5045851;28;20039;-54
2021/03/04 03:08:58;;;;;;;7.10;3.00;;;10.50;97.40;;;;;;5046306;28;20175;-52
2021/03/04 03:11:25;;;;;;;4.53;2.83;;;10.50;97.60;;;;;;5045657;28;20078;-53
2021/03/04 03:13:54;;;;;;;4.72;2.67;;;10.50;97.40;;;;;;5045676;28;20058;-53
2021/03/04 03:16:20;;;;;;;6.40;3.00;;;10.60;97.40;;;;;;5045783;28;20032;-54
2021/03/04 03:18:47;;;;;;;5.93;3.25;;;10.80;97.00;;;;;;5045467;28;20037;-54
2021/03/04 03:21:12;;;;;;;8.07;3.10;;;10.90;96.90;;;;;;5045734;28;20017;-54
2021/03/04 03:23:38;;;;;;;9.23;3.45;;;10.90;96.80;;;;;;5045546;28;20036;-53
2021/03/04 03:26:05;;;;;;;7.55;3.10;;;10.90;96.70;;;;;;5045477;28;20075;-55
2021/03/04 03:28:30;;;;;;;4.05;2.60;;;10.90;96.80;;;;;;5044668;28;20032;-54
2021/03/04 03:30:58;;;;;;;6.43;3.47;;;10.80;96.70;;;;;;5045678;28;20548;-54
2021/03/04 03:33:26;;;;;;;4.88;2.90;;;10.90;96.80;;;;;;5045141;28;20075;-54
2021/03/04 03:35:52;;;;;;;5.00;2.90;;;10.90;96.60;;;;;;5046069;28;20100;-53
2021/03/04 03:38:18;;;;;;;10.95;3.53;;;10.80;96.80;;;;;;5045554;28;20622;-53
2021/03/04 03:40:50;;;;;;;8.48;3.60;;;10.80;96.90;;;;;;5044974;28;20511;-54
2021/03/04 03:43:17;;;;;;;6.65;3.30;;;10.80;96.90;;;;;;5044944;28;20763;-54
2021/03/04 03:45:49;;;;;;;6.30;3.33;;;10.80;97.00;;;;;;5045325;28;20028;-54
2021/03/04 03:48:17;;;;;;;6.40;2.92;;;10.70;97.20;;;;;;5044912;28;20025;-52
2021/03/04 03:50:43;;;;;;;4.45;3.22;;;10.50;97.40;;;;;;5043990;28;20025;-54
2021/03/04 03:53:12;;;;;;;5.68;3.33;;;10.60;97.30;;;;;;5044395;28;20029;-54
2021/03/04 03:55:40;;;;;;;7.20;3.05;;;10.50;97.10;;;;;;5043511;28;20025;-54
2021/03/04 03:58:07;;;;;;;5.05;3.38;;;10.60;97.20;;;;;;5046227;28;20024;-52
2021/03/04 04:00:34;;;;;;;8.15;3.47;;;10.60;97.20;;;;;;5044134;28;20057;-54
2021/03/04 04:03:03;;;;;;;5.93;3.17;;;10.50;97.30;;;;;;5044086;28;20068;-55
2021/03/04 04:05:30;;;;;;;7.40;3.28;;;10.30;97.40;;;;;;5044663;28;20025;-54
2021/03/04 04:07:58;;;;;;;6.20;3.85;;;10.30;97.60;;;;;;5044683;28;20491;-54
2021/03/04 04:10:25;;;;;;;6.75;2.80;;;10.20;97.70;;;;;;5043292;28;20029;-54
2021/03/04 04:12:51;;;;;;;7.35;3.47;;;10.20;97.90;;;;;;5043891;28;20100;-54
2021/03/04 04:15:18;;;;;;;7.32;3.55;;;10.00;98.00;;;;;;5044594;28;20120;-51
2021/03/04 04:17:44;;;;;;;6.65;3.83;;;9.90;98.20;;;;;;5044985;28;20031;-53
2021/03/04 04:20:10;;;;;;;7.57;3.97;;;9.90;98.40;;;;;;5044576;28;20029;-54
2021/03/04 04:22:36;;;;;;;9.55;4.30;;;9.80;98.90;;;;;;5044601;28;20024;-53
2021/03/04 04:25:03;;;;;;;10.88;3.95;;;9.70;99.00;;;;;;5044439;28;20029;-54
2021/03/04 04:27:29;;;;;;;8.55;4.00;;;9.80;99.30;;;;;;5044401;28;20036;-54
2021/03/04 04:29:55;;;;;;;6.07;3.58;;;9.90;99.30;;;;;;5044782;28;20025;-54
2021/03/04 04:32:21;;;;;;;7.78;4.07;;;10.00;99.40;;;;;;5043073;28;20418;-52
2021/03/04 04:34:47;;;;;;;9.48;4.30;;;10.10;99.10;;;;;;5044356;28;20033;-55
2021/03/04 04:37:13;;;;;;;6.90;3.78;;;10.00;99.60;;;;;;5044164;28;20033;-54
2021/03/04 04:39:39;;;;;;;5.88;3.40;;;10.00;99.40;;;;;;5043016;28;20491;-53
2021/03/04 04:42:05;;;;;;;7.88;3.53;;;10.00;99.70;;;;;;5044954;28;20021;-53
2021/03/04 04:44:31;;;;;;;10.10;4.07;;;10.10;99.20;;;;;;5044212;28;20029;-54
2021/03/04 04:46:57;;;;;;;7.80;3.88;;;10.00;98.80;;;;;;5044112;28;20465;-53
2021/03/04 04:49:23;;;;;;;8.80;4.32;;;10.10;98.90;;;;;;5044249;28;20387;-54
2021/03/04 04:51:49;;;;;;;12.15;4.43;;;10.10;98.80;;;;;;5042988;28;20033;-54
2021/03/04 04:54:14;;;;;;;7.10;3.97;;;10.10;98.80;;;;;;5045227;28;20027;-53
2021/03/04 04:56:40;;;;;;;8.13;3.83;;;10.00;98.90;;;;;;5045742;28;20040;-53
2021/03/04 04:59:06;;;;;;;9.13;4.13;;;10.00;98.90;;;;;;5027913;28;20037;-54
2021/03/04 05:01:32;;;;;;;9.15;4.20;;;10.10;98.90;;;;;;5025587;28;20056;-54
2021/03/04 05:03:57;;;;;;;11.80;4.57;;;10.20;98.80;;;;;;5026054;28;20025;-53
2021/03/04 05:06:23;;;;;;;10.55;5.15;;;10.50;98.40;;;;;;5025447;28;20053;-54
2021/03/04 05:08:49;;;;;;;8.25;4.75;;;10.70;98.00;;;;;;5040955;28;20035;-54
2021/03/04 05:11:17;;;;;;;8.68;4.57;;;10.60;98.50;;;;;;5045249;28;20048;-54
2021/03/04 05:13:46;;;;;;;8.77;3.72;;;10.60;98.80;;;;;;5045279;28;20479;-53
2021/03/04 05:16:12;;;;;;;5.15;3.03;;;10.50;99.00;;;;;;5045119;28;20549;-54
2021/03/04 05:18:38;;;;;;;10.13;4.93;;;10.50;98.90;;;;;;5045324;28;20503;-54
2021/03/04 05:21:05;;;;;;;7.30;4.38;;;10.40;98.80;;;;;;5046188;28;20032;-53
2021/03/04 05:23:31;;;;;;;6.90;3.97;;;10.40;99.10;;;;;;5045628;28;20025;-55
2021/03/04 05:25:57;;;;;;;9.05;4.35;;;10.40;98.90;;;;;;5045579;28;20418;-54
2021/03/04 05:28:23;;;;;;;9.55;4.05;;;10.60;99.00;;;;;;5045411;28;20018;-54
2021/03/04 05:30:48;;;;;;;5.53;3.67;;;10.60;99.00;;;;;;5043754;28;20123;-54
2021/03/04 05:33:14;;;;;;;7.60;3.60;;;10.50;99.50;;;;;;5044079;28;20511;-54
2021/03/04 05:35:40;;;;;;;8.57;4.03;;;10.40;99.80;;;;;;5044147;28;20343;-53
2021/03/04 05:38:05;;;;;;;8.18;4.18;;;10.40;99.40;;;;;;5044404;28;20294;-53
2021/03/04 05:40:31;;;;;;;10.07;4.35;;;10.40;99.20;;;;;;5043531;28;20032;-54
2021/03/04 05:42:58;;;;;;;12.90;4.70;;;10.00;99.90;;;;;;5043111;28;20136;-50
2021/03/04 05:45:27;;;;;;;8.38;4.70;;;10.00;99.90;;;;;;5043180;28;20067;-54
2021/03/04 05:47:55;;;;;;;10.15;5.15;;;10.00;99.90;;;;;;5043803;28;20049;-54
2021/03/04 05:50:22;;;;;;;9.82;5.10;;;10.00;99.90;;;;;;5043489;28;20403;-54
2021/03/04 05:53:09;;;;;;;14.38;7.05;;;10.00;99.90;;;;;;5046940;28;20215;-53
2021/03/04 05:55:37;;;;;;;18.67;8.20;;;9.70;99.90;;;;;;5045933;28;20302;-54
2021/03/04 05:58:05;;;;;;;14.25;6.95;;;9.60;99.80;;;;;;5047827;28;20029;-53
2021/03/04 06:00:31;;;;;;;11.75;7.45;;;9.40;99.90;;;;;;5045583;28;20517;-54
2021/03/04 06:02:58;;;;;;;14.40;7.80;;;9.40;99.90;;;;;;5047388;28;20025;-53
2021/03/04 06:05:25;;;;;;;15.50;6.97;;;9.40;99.90;;;;;;5046545;28;20021;-54
2021/03/04 06:07:51;;;;;;;12.15;6.25;;;9.50;99.80;;;;;;5047264;28;20032;-54
2021/03/04 06:10:16;;;;;;;10.43;5.88;;;9.30;99.40;;;;;;5045935;28;20485;-54
2021/03/04 06:12:43;;;;;;;10.27;6.60;;;9.30;99.40;;;;;;5046877;28;20033;-53
2021/03/04 06:15:12;;;;;;;9.45;5.07;;;9.30;99.30;;;;;;5046833;28;20462;-53
2021/03/04 06:17:38;;;;;;;11.82;5.95;;;9.20;99.40;;;;;;5046595;28;20033;-54
2021/03/04 06:20:08;;;;;;;10.13;5.80;;;9.30;99.30;;;;;;5047439;28;20032;-54
2021/03/04 06:22:36;;;;;;;10.73;5.53;;;9.30;99.50;;;;;;5047095;28;20104;-53
2021/03/04 06:25:07;;;;;;;10.20;5.47;;;9.30;99.40;;;;;;5046601;28;20111;-53
2021/03/04 06:27:35;;;;;;;11.52;5.80;;;9.20;99.50;;;;;;5046317;28;20104;-54
2021/03/04 06:30:05;;;;;;;16.30;6.40;;;9.20;99.40;;;;;;5045903;28;20060;-55
2021/03/04 06:32:31;;;;;;;13.63;6.45;;;9.10;99.60;;;;;;5045687;28;20056;-54
2021/03/04 06:35:28;;;;;;;13.32;6.10;;;9.20;99.80;;;;;;5046566;28;20483;-54
2021/03/04 06:37:55;;;;;;;9.10;5.22;;;9.30;99.90;;;;;;5046657;28;20091;-54
2021/03/04 06:40:26;;;;;;;12.27;5.40;;;9.30;99.90;;;;;;5046074;28;20033;-54
2021/03/04 06:42:53;;;;;;;14.52;5.20;;;9.40;99.90;;;;;;5046336;28;20568;-54
2021/03/04 06:45:26;;;;;;;8.93;4.90;;;9.30;99.90;;;;;;5045852;28;20024;-54
2021/03/04 06:48:04;;;;;;;10.00;5.05;;;9.30;99.90;;;;;;5046522;28;20376;-54
2021/03/04 06:50:30;;;;;;;9.80;5.13;;;9.30;99.90;;;;;;5045824;28;20121;-54
2021/03/04 06:52:56;;;;;;;11.40;5.10;;;9.40;99.90;;;;;;5045072;28;20622;-53
2021/03/04 06:55:22;;;;;;;10.65;6.00;;;9.30;99.90;;;;;;5045848;28;20469;-54
2021/03/04 06:58:02;;;;;;;13.10;7.43;;;9.30;99.90;;;;;;5046292;28;20222;-54
2021/03/04 07:00:28;;;;;;;14.13;7.10;;;9.30;99.90;;;;;;5044930;28;20025;-54
2021/03/04 07:02:56;;;;;;;11.80;6.22;;;9.30;99.90;;;;;;5044405;28;20159;-53
2021/03/04 07:05:23;;;;;;;11.13;6.07;;;9.20;99.90;;;;;;5045546;28;20048;-53
2021/03/04 07:07:57;;;;;;;11.90;6.03;;;9.20;99.90;;;;;;5047773;28;20152;-53
2021/03/04 07:10:27;;;;;;;11.70;6.70;;;9.30;99.90;;;;;;5045032;28;20230;-54
2021/03/04 07:12:53;;;;;;;12.70;7.22;;;9.30;99.90;;;;;;5047062;28;20033;-54
2021/03/04 07:15:20;;;;;;;15.68;8.50;;;9.30;99.90;;;;;;5047011;28;20033;-56
2021/03/04 07:17:50;;;;;;;17.63;9.23;;;9.30;99.90;;;;;;5047364;28;20029;-53
2021/03/04 07:20:21;;;;;;;15.90;9.02;;;9.30;99.60;;;;;;5046507;28;20108;-54
2021/03/04 07:22:48;;;;;;;15.52;8.90;;;9.20;99.90;;;;;;5045812;28;20041;-54
2021/03/04 07:25:17;;;;;;;19.25;9.10;;;9.30;99.90;;;;;;5047393;28;20378;-52
2021/03/04 07:27:43;;;;;;;16.20;8.30;;;9.30;99.90;;;;;;5041791;28;20033;-53
2021/03/04 07:30:11;;;;;;;15.98;7.88;;;9.40;99.90;;;;;;5046394;28;20032;-54
2021/03/04 07:32:38;;;;;;;13.65;7.13;;;9.40;99.90;;;;;;5045522;28;20722;-55
2021/03/04 07:35:09;;;;;;;12.30;6.30;;;9.60;99.80;;;;;;5047781;28;20028;-54
2021/03/04 07:37:38;;;;;;;14.45;6.85;;;9.60;99.90;;;;;;5047372;28;20408;-55
2021/03/04 07:40:04;;;;;;;13.90;6.50;;;9.60;99.90;;;;;;5043983;28;20033;-54
2021/03/04 07:42:30;;;;;;;11.43;6.30;;;9.70;99.90;;;;;;5043619;28;20103;-53
2021/03/04 07:44:56;;;;;;;9.52;5.35;;;9.70;99.80;;;;;;5040714;28;20100;-53
2021/03/04 07:47:27;;;;;;;11.57;5.55;;;9.80;99.80;;;;;;5042818;28;20051;-54
2021/03/04 07:49:53;;;;;;;9.35;5.47;;;9.80;99.90;;;;;;5045375;28;20033;-53
2021/03/04 07:52:22;;;;;;;7.75;4.55;;;9.90;99.80;;;;;;5045285;28;20510;-52
2021/03/04 07:54:50;;;;;;;8.98;5.03;;;9.80;99.90;;;;;;5044009;28;20037;-53
2021/03/04 07:57:18;;;;;;;8.18;4.53;;;9.80;99.90;;;;;;5044299;28;20111;-52
2021/03/04 07:59:58;;;;;;;7.68;4.38;;;9.90;99.90;;;;;;5044657;28;20017;-53
2021/03/04 08:02:36;;;;;;;7.88;4.60;;;9.90;99.90;;;;;;5039355;28;20411;-54
2021/03/04 08:05:18;;;;;;;6.15;4.03;;;10.00;99.90;;;;;;5043952;28;20513;-52
2021/03/04 08:07:46;;;;;;;6.30;3.45;;;10.00;99.90;;;;;;5044578;28;20372;-52
2021/03/04 08:10:14;;;;;;;7.75;4.20;;;10.10;99.90;;;;;;5043412;28;20025;-54
2021/03/04 08:12:58;;;;;;;7.35;3.70;;;10.20;99.90;;;;;;5044693;28;20029;-54
2021/03/04 08:15:32;;;;;;;8.20;4.25;;;10.30;99.90;;;;;;5044022;28;20388;-53
2021/03/04 08:17:58;;;;;;;7.45;4.20;;;10.30;99.90;;;;;;5043084;28;20041;-54
2021/03/04 08:20:24;;;;;;;7.38;4.45;;;10.40;99.90;;;;;;5043954;28;20048;-53
2021/03/04 08:22:50;;;;;;;9.05;4.10;;;10.50;99.90;;;;;;5044834;28;20072;-54
2021/03/04 08:25:37;;;;;;;7.80;3.83;;;10.60;99.90;;;;;;5044203;28;20060;-54
2021/03/04 08:28:04;;;;;;;7.97;4.25;;;10.70;99.90;;;;;;5044014;28;20037;-53
2021/03/04 08:30:34;;;;;;;6.97;4.10;;;10.70;99.90;;;;;;5042622;28;20309;-54
2021/03/04 08:33:03;;;;;;;10.10;5.22;;;10.60;99.90;;;;;;5044093;28;20086;-53
2021/03/04 08:35:29;;;;;;;8.65;4.25;;;10.50;99.90;;;;;;5044028;28;20025;-53
2021/03/04 08:38:15;;;;;;;10.00;4.93;;;10.60;99.90;;;;;;5044632;28;20035;-52
2021/03/04 08:40:46;;;;;;;5.22;3.28;;;10.70;99.90;;;;;;5043896;28;20132;-53
2021/03/04 08:43:23;;;;;;;8.80;5.03;;;10.70;99.90;;;;;;5043754;28;20025;-54
2021/03/04 08:45:53;;;;;;;11.90;6.25;;;10.70;99.90;;;;;;5044323;28;20025;-53
2021/03/04 08:48:20;;;;;;;17.23;6.75;;;10.70;99.90;;;;;;5043970;28;20088;-52
2021/03/04 08:50:48;;;;;;;21.35;8.10;;;10.60;99.90;;;;;;5044241;28;20029;-53
2021/03/04 08:53:19;;;;;;;21.65;9.25;;;10.60;99.90;;;;;;5043688;28;20075;-53
2021/03/04 08:55:50;;;;;;;16.50;8.07;;;10.60;99.90;;;;;;5044410;28;20033;-53
2021/03/04 08:58:17;;;;;;;16.80;9.07;;;10.60;99.90;;;;;;5043726;28;20040;-53
2021/03/04 09:00:54;;;;;;;19.33;10.15;;;10.70;99.90;;;;;;5044229;28;20036;-50
2021/03/04 09:03:21;;;;;;;24.35;9.85;;;10.70;99.90;;;;;;5043896;28;20063;-53
2021/03/04 09:05:47;;;;;;;16.05;8.50;;;10.70;99.90;;;;;;5044036;28;20029;-53
2021/03/04 09:08:14;;;;;;;18.90;9.23;;;10.80;99.90;;;;;;5044018;28;20029;-53
2021/03/04 09:10:50;;;;;;;15.75;8.50;;;11.00;99.90;;;;;;5042918;28;20507;-53
2021/03/04 09:13:27;;;;;;;16.75;8.48;;;11.00;99.90;;;;;;5043483;28;20061;-53
2021/03/04 09:15:55;;;;;;;16.40;7.38;;;11.10;99.90;;;;;;5044014;28;20025;-52
2021/03/04 09:18:23;;;;;;;15.52;7.28;;;11.00;99.90;;;;;;5043558;28;20025;-52
2021/03/04 09:20:49;;;;;;;14.98;8.45;;;11.00;99.90;;;;;;5043805;28;20033;-54
2021/03/04 09:23:16;;;;;;;16.95;6.93;;;11.10;99.90;;;;;;5043824;28;20025;-54
2021/03/04 09:25:42;;;;;;;17.10;7.45;;;11.20;99.90;;;;;;5044444;28;20047;-54
2021/03/04 09:28:11;;;;;;;18.42;8.43;;;11.20;99.90;;;;;;5048292;28;20029;-52
2021/03/04 09:30:37;;;;;;;18.35;8.65;;;11.20;99.90;;;;;;5048122;28;20029;-53
2021/03/04 09:33:03;;;;;;;15.18;10.27;;;11.30;99.90;;;;;;5047741;28;20036;-54
2021/03/04 09:35:29;;;;;;;16.77;8.38;;;11.30;99.90;;;;;;5047553;28;20462;-53
2021/03/04 09:38:05;;;;;;;10.50;5.72;;;11.40;99.90;;;;;;5047795;28;20060;-53
2021/03/04 09:40:32;;;;;;;10.63;5.70;;;11.60;99.90;;;;;;5047179;28;20412;-53
2021/03/04 09:42:59;;;;;;;14.57;7.25;;;11.60;99.90;;;;;;5047307;28;20037;-54
2021/03/04 09:45:25;;;;;;;11.20;6.72;;;11.60;99.90;;;;;;5047155;28;20411;-54
2021/03/04 09:47:52;;;;;;;16.30;8.32;;;11.60;99.90;;;;;;5046988;28;20025;-53
2021/03/04 09:50:28;;;;;;;16.38;6.68;;;11.60;99.90;;;;;;5047152;28;20025;-52
2021/03/04 09:53:20;;;;;;;12.32;6.55;;;11.80;99.90;;;;;;5047052;28;20086;-53
2021/03/04 09:55:46;;;;;;;17.75;8.35;;;11.90;99.90;;;;;;5045935;28;20037;-53
2021/03/04 09:58:16;;;;;;;13.73;7.50;;;11.70;99.90;;;;;;5046908;28;20059;-51
2021/03/04 10:00:43;;;;;;;15.00;7.95;;;11.70;99.90;;;;;;5047173;28;20482;-52
2021/03/04 10:03:14;;;;;;;18.15;9.32;;;11.90;99.90;;;;;;5047525;28;20437;-54
2021/03/04 10:05:50;;;;;;;14.68;7.82;;;11.90;99.90;;;;;;5047072;28;20435;-53
2021/03/04 10:08:18;;;;;;;20.63;8.88;;;12.00;99.90;;;;;;5046947;28;20048;-53
2021/03/04 10:10:45;;;;;;;14.80;7.60;;;12.00;99.90;;;;;;5046745;28;20029;-53
2021/03/04 10:13:11;;;;;;;17.85;8.02;;;12.00;99.90;;;;;;5046880;28;20021;-53
2021/03/04 10:15:41;;;;;;;17.73;8.95;;;12.00;99.90;;;;;;5047157;28;20033;-53
2021/03/04 10:18:12;;;;;;;12.38;7.43;;;12.00;99.90;;;;;;5047741;28;20033;-53
2021/03/04 10:20:44;;;;;;;18.38;8.50;;;12.00;99.90;;;;;;5046938;28;20033;-54
2021/03/04 10:23:11;;;;;;;16.40;7.93;;;12.10;99.90;;;;;;5047215;28;20028;-53
2021/03/04 10:25:37;;;;;;;19.95;8.85;;;12.20;99.90;;;;;;5046785;28;20018;-51
2021/03/04 10:28:03;;;;;;;13.82;6.95;;;12.20;99.90;;;;;;5046710;28;20032;-53
2021/03/04 10:30:31;;;;;;;24.73;8.55;;;12.20;99.90;;;;;;5045354;28;20092;-53
2021/03/04 10:32:59;;;;;;;18.55;8.63;;;12.20;99.70;;;;;;5045655;28;20029;-54
2021/03/04 10:35:24;;;;;;;19.55;10.15;;;12.30;99.70;;;;;;5045208;28;20437;-52
2021/03/04 10:37:51;;;;;;;20.05;9.02;;;12.30;99.90;;;;;;5047069;28;20063;-53
2021/03/04 10:40:19;;;;;;;17.30;7.53;;;12.30;99.80;;;;;;5047520;28;20059;-54
2021/03/04 10:42:45;;;;;;;13.02;6.43;;;12.30;99.70;;;;;;5047961;28;20393;-53
2021/03/04 10:45:13;;;;;;;14.40;6.47;;;12.50;99.50;;;;;;5047501;28;20022;-52
2021/03/04 10:47:40;;;;;;;11.80;6.47;;;12.60;99.60;;;;;;5047724;28;20579;-52
2021/03/04 10:50:08;;;;;;;22.98;10.43;;;12.80;99.70;;;;;;5048596;28;20421;-52
2021/03/04 10:52:34;;;;;;;15.02;7.53;;;12.60;98.80;;;;;;5045208;28;20534;-52
2021/03/04 10:55:00;;;;;;;15.88;7.65;;;12.70;98.80;;;;;;5046102;28;20033;-53
2021/03/04 10:57:26;;;;;;;22.38;10.35;;;12.70;99.30;;;;;;5045160;28;20025;-51
2021/03/04 10:59:52;;;;;;;18.27;7.95;;;12.70;98.90;;;;;;5043536;28;20109;-54
2021/03/04 11:02:18;;;;;;;14.50;6.95;;;12.80;98.60;;;;;;5025927;28;20099;-53
2021/03/04 11:04:43;;;;;;;16.80;6.55;;;12.90;98.80;;;;;;5026282;28;20076;-54
2021/03/04 11:07:09;;;;;;;15.23;6.15;;;13.10;98.40;;;;;;5026299;28;20053;-54
2021/03/04 11:09:35;;;;;;;15.38;7.03;;;13.10;98.40;;;;;;5026225;28;20523;-52
2021/03/04 11:12:01;;;;;;;13.68;6.75;;;13.10;98.00;;;;;;5025688;28;20029;-53
2021/03/04 11:14:28;;;;;;;14.18;5.53;;;13.00;98.00;;;;;;5041103;28;20037;-53
2021/03/04 11:16:54;;;;;;;15.85;7.40;;;13.20;98.00;;;;;;5025866;28;20026;-53
2021/03/04 11:19:21;;;;;;;14.15;5.97;;;13.30;98.10;;;;;;5025606;28;20022;-54
2021/03/04 11:21:46;;;;;;;17.35;8.00;;;13.30;98.00;;;;;;5026042;28;20021;-54
2021/03/04 11:24:13;;;;;;;12.25;6.47;;;13.40;97.90;;;;;;5025886;28;20021;-54
2021/03/04 11:26:40;;;;;;;9.25;6.10;;;13.50;97.60;;;;;;5025226;28;20210;-54
2021/03/04 11:29:07;;;;;;;20.15;9.20;;;13.70;97.50;;;;;;5026454;28;20450;-54
2021/03/04 11:31:34;;;;;;;14.80;5.93;;;13.70;96.50;;;;;;5025405;28;20108;-53
2021/03/04 11:34:00;;;;;;;15.13;8.00;;;13.90;97.00;;;;;;5025590;28;20036;-53
2021/03/04 11:36:32;;;;;;;12.32;5.50;;;13.90;96.80;;;;;;5025159;28;20147;-54
2021/03/04 11:38:58;;;;;;;20.02;8.35;;;14.20;96.90;;;;;;5025356;28;20121;-54
2021/03/04 11:41:24;;;;;;;14.55;5.57;;;13.90;95.80;;;;;;5025051;28;20028;-53
2021/03/04 11:43:50;;;;;;;13.55;7.03;;;14.10;96.00;;;;;;5025489;28;20410;-53
2021/03/04 11:46:17;;;;;;;11.43;4.97;;;14.20;96.20;;;;;;5024952;28;20448;-53
2021/03/04 11:48:43;;;;;;;7.60;4.22;;;14.40;96.50;;;;;;5024935;28;20025;-53
2021/03/04 11:51:08;;;;;;;7.85;4.55;;;14.80;95.40;;;;;;5025648;28;20079;-53
2021/03/04 11:53:34;;;;;;;17.30;6.28;;;14.80;95.20;;;;;;5025042;28;20245;-54
2021/03/04 11:56:00;;;;;;;14.68;6.80;;;14.90;95.00;;;;;;5025121;28;20431;-54
2021/03/04 11:58:27;;;;;;;20.23;8.45;;;14.70;94.90;;;;;;5024709;28;20053;-53
2021/03/04 12:00:53;;;;;;;14.63;7.43;;;14.60;95.10;;;;;;5024861;28;20515;-52
2021/03/04 12:03:21;;;;;;;13.02;6.47;;;15.00;95.20;;;;;;5024711;28;20022;-52
2021/03/04 12:05:47;;;;;;;14.85;6.82;;;15.20;94.70;;;;;;5025019;28;20531;-53
2021/03/04 12:08:13;;;;;;;18.35;6.93;;;15.20;94.50;;;;;;5024858;28;20104;-53
2021/03/04 12:10:39;;;;;;;9.77;4.90;;;15.30;94.60;;;;;;5024234;28;20041;-53
2021/03/04 12:13:06;;;;;;;10.93;5.63;;;15.50;94.30;;;;;;5025435;28;20091;-53
2021/03/04 12:15:33;;;;;;;14.50;6.57;;;15.70;94.10;;;;;;5024237;28;20028;-54
2021/03/04 12:17:59;;;;;;;11.52;4.53;;;15.60;94.00;;;;;;5024871;28;20036;-53
2021/03/04 12:20:25;;;;;;;14.70;6.20;;;15.80;93.00;;;;;;5024365;28;20029;-54
2021/03/04 12:22:51;;;;;;;14.60;5.43;;;15.70;93.50;;;;;;5024844;28;20035;-53
2021/03/04 12:25:16;;;;;;;9.75;4.40;;;15.80;92.70;;;;;;5024317;28;20036;-54
2021/03/04 12:27:42;;;;;;;12.13;6.07;;;16.00;93.20;;;;;;5024705;28;20539;-54
2021/03/04 12:30:09;;;;;;;9.70;4.45;;;15.90;92.40;;;;;;5025102;28;20030;-54
2021/03/04 12:32:35;;;;;;;10.73;4.28;;;16.30;92.60;;;;;;5033790;28;20676;-53
2021/03/04 12:35:02;;;;;;;13.60;5.50;;;16.40;92.60;;;;;;5046210;28;20440;-54
2021/03/04 12:37:28;;;;;;;15.93;5.80;;;16.30;92.40;;;;;;5044536;28;20499;-54
2021/03/04 12:39:54;;;;;;;7.97;4.07;;;16.40;92.60;;;;;;5045903;28;20033;-55
2021/03/04 12:42:21;;;;;;;7.70;4.25;;;16.50;92.40;;;;;;5041658;28;20076;-50
2021/03/04 12:44:47;;;;;;;11.82;5.40;;;16.50;92.70;;;;;;5045731;28;20064;-54
2021/03/04 12:47:12;;;;;;;13.82;6.10;;;16.60;91.60;;;;;;5045954;28;20059;-53